createdAt,value
2023-08-14T00:01:09.237Z,98518.81
2023-08-14T00:03:35.709Z,98519.63
2023-08-14T00:06:02.087Z,98522.53
2023-08-14T00:08:28.456Z,98526.00
2023-08-14T00:10:55.077Z,98529.47
2023-08-14T00:13:21.638Z,98528.66
2023-08-14T00:15:48.427Z,98522.53
2023-08-14T00:18:14.806Z,98520.13
2023-08-14T00:20:41.166Z,98519.09
2023-08-14T00:23:07.517Z,98523.59
2023-08-14T00:25:33.873Z,98513.19
2023-08-14T00:28:00.695Z,98521.44
2023-08-14T00:30:27.047Z,98524.91
2023-08-14T00:32:53.506Z,98521.94
2023-08-14T00:35:19.960Z,98515.53
2023-08-14T00:37:46.872Z,98511.28
2023-08-14T00:40:13.651Z,98518.22
2023-08-14T00:42:40.163Z,98514.75
2023-08-14T00:45:07.018Z,98517.41
2023-08-14T00:47:34.125Z,98510.50
2023-08-14T00:50:00.489Z,98508.88
2023-08-14T00:52:27.294Z,98514.22
2023-08-14T00:54:53.687Z,98507.03
2023-08-14T00:57:20.281Z,98505.44
2023-08-14T00:59:47.407Z,98506.22
2023-08-14T01:02:14.145Z,98508.88
2023-08-14T01:04:40.780Z,98508.88
2023-08-14T01:07:07.145Z,98507.81
2023-08-14T01:09:33.687Z,98505.16
2023-08-14T01:12:10.909Z,98510.75
2023-08-14T01:14:37.354Z,98511.28
2023-08-14T01:17:06.469Z,98515.81
2023-08-14T01:19:34.229Z,98509.69
2023-08-14T01:22:05.519Z,98506.22
2023-08-14T01:24:37.706Z,98511.28
2023-08-14T01:27:04.107Z,98511.56
2023-08-14T01:29:34.420Z,98508.09
2023-08-14T01:32:00.835Z,98502.19
2023-08-14T01:34:27.207Z,98502.19
2023-08-14T01:36:59.675Z,98504.84
2023-08-14T01:39:27.541Z,98500.59
2023-08-14T01:42:00.223Z,98494.22
2023-08-14T01:44:26.640Z,98493.69
2023-08-14T01:46:53.971Z,98492.31
2023-08-14T01:49:20.352Z,98495.81
2023-08-14T01:51:46.906Z,98490.72
2023-08-14T01:54:13.299Z,98490.72
2023-08-14T01:56:39.653Z,98497.09
2023-08-14T01:59:06.025Z,98486.72
2023-08-14T02:01:32.426Z,98490.72
2023-08-14T02:03:58.928Z,98487.25
2023-08-14T02:06:25.358Z,98482.19
2023-08-14T02:08:51.721Z,98480.81
2023-08-14T02:11:18.327Z,98486.72
2023-08-14T02:13:44.697Z,98479.53
2023-08-14T02:16:11.154Z,98479.53
2023-08-14T02:18:37.795Z,98471.78
2023-08-14T02:21:04.169Z,98473.63
2023-08-14T02:23:30.562Z,98469.94
2023-08-14T02:25:57.003Z,98472.59
2023-08-14T02:28:23.406Z,98471.25
2023-08-14T02:30:49.816Z,98460.06
2023-08-14T02:33:16.176Z,98453.91
2023-08-14T02:35:42.530Z,98449.41
2023-08-14T02:38:09.000Z,98446.75
2023-08-14T02:40:35.355Z,98449.66
2023-08-14T02:43:02.806Z,98448.06
2023-08-14T02:45:29.530Z,98451.25
2023-08-14T02:47:56.013Z,98445.94
2023-08-14T02:50:25.735Z,98441.94
2023-08-14T02:52:52.109Z,98436.59
2023-08-14T02:55:18.506Z,98441.94
2023-08-14T02:57:44.887Z,98447.75
2023-08-14T03:00:11.408Z,98448.53
2023-08-14T03:02:37.964Z,98445.09
2023-08-14T03:05:04.565Z,98443.22
2023-08-14T03:07:31.186Z,98444.84
2023-08-14T03:09:57.651Z,98444.84
2023-08-14T03:12:24.035Z,98445.38
2023-08-14T03:14:50.513Z,98443.22
2023-08-14T03:17:17.112Z,98445.88
2023-08-14T03:19:43.484Z,98446.47
2023-08-14T03:22:09.850Z,98444.03
2023-08-14T03:24:36.248Z,98435.25
2023-08-14T03:27:02.643Z,98430.72
2023-08-14T03:29:29.470Z,98433.38
2023-08-14T03:31:55.845Z,98428.59
2023-08-14T03:34:22.257Z,98443.50
2023-08-14T03:36:48.647Z,98437.63
2023-08-14T03:39:15.024Z,98437.56
2023-08-14T03:41:41.430Z,98434.34
2023-08-14T03:44:07.828Z,98443.91
2023-08-14T03:46:34.275Z,98437.78
2023-08-14T03:49:00.694Z,98439.66
2023-08-14T03:51:27.103Z,98435.13
2023-08-14T03:53:53.450Z,98433.81
2023-08-14T03:56:20.047Z,98427.69
2023-08-14T03:58:46.476Z,98427.41
2023-08-14T04:01:12.852Z,98424.19
2023-08-14T04:03:39.673Z,98434.84
2023-08-14T04:06:06.165Z,98437.75
2023-08-14T04:08:32.770Z,98433.22
2023-08-14T04:10:59.249Z,98426.06
2023-08-14T04:13:26.001Z,98433.22
2023-08-14T04:15:52.400Z,98425.81
2023-08-14T04:18:18.794Z,98421.28
2023-08-14T04:20:45.185Z,98420.22
2023-08-14T04:23:11.951Z,98422.09
2023-08-14T04:25:38.349Z,98412.75
2023-08-14T04:28:04.872Z,98413.56
2023-08-14T04:30:31.250Z,98400.81
2023-08-14T04:32:58.039Z,98412.25
2023-08-14T04:35:27.230Z,98407.19
2023-08-14T04:37:55.035Z,98407.19
2023-08-14T04:40:21.408Z,98407.19
2023-08-14T04:42:47.952Z,98408.00
2023-08-14T04:45:14.301Z,98403.72
2023-08-14T04:47:40.740Z,98403.47
2023-08-14T04:50:07.377Z,98402.41
2023-08-14T04:52:33.741Z,98399.75
2023-08-14T04:55:00.179Z,98405.06
2023-08-14T04:57:26.566Z,98403.25
2023-08-14T04:59:52.923Z,98400.06
2023-08-14T05:02:19.549Z,98406.66
2023-08-14T05:04:47.428Z,98408.28
2023-08-14T05:07:13.816Z,98416.81
2023-08-14T05:09:40.176Z,98413.34
2023-08-14T05:12:06.673Z,98411.50
2023-08-14T05:14:33.115Z,98412.56
2023-08-14T05:16:59.475Z,98411.22
2023-08-14T05:19:25.846Z,98410.50
2023-08-14T05:21:52.212Z,98415.03
2023-08-14T05:24:18.590Z,98418.47
2023-08-14T05:26:44.948Z,98419.28
2023-08-14T05:29:11.423Z,98424.38
2023-08-14T05:31:37.931Z,98423.00
2023-08-14T05:34:04.494Z,98426.09
2023-08-14T05:36:30.874Z,98420.88
2023-08-14T05:38:57.267Z,98428.53
2023-08-14T05:41:23.710Z,98435.91
2023-08-14T05:43:50.158Z,98437.81
2023-08-14T05:46:16.559Z,98437.28
2023-08-14T05:48:42.917Z,98444.19
2023-08-14T05:51:09.344Z,98439.19
2023-08-14T05:53:35.692Z,98443.13
2023-08-14T05:56:02.041Z,98441.53
2023-08-14T05:58:28.427Z,98437.94
2023-08-14T06:00:54.907Z,98437.28
2023-08-14T06:03:33.112Z,98441.03
2023-08-14T06:06:08.625Z,98446.03
2023-08-14T06:08:35.645Z,98445.75
2023-08-14T06:11:02.824Z,98444.34
2023-08-14T06:13:29.175Z,98440.41
2023-08-14T06:15:55.740Z,98446.44
2023-08-14T06:18:22.136Z,98441.16
2023-08-14T06:20:48.516Z,98449.19
2023-08-14T06:23:15.054Z,98443.06
2023-08-14T06:25:41.413Z,98441.28
2023-08-14T06:28:07.840Z,98444.31
2023-08-14T06:30:34.240Z,98446.13
2023-08-14T06:33:01.665Z,98452.63
2023-08-14T06:35:28.072Z,98446.34
2023-08-14T06:37:54.438Z,98443.19
2023-08-14T06:40:20.834Z,98436.72
2023-08-14T06:42:47.233Z,98435.88
2023-08-14T06:45:13.597Z,98445.06
2023-08-14T06:47:43.666Z,98438.72
2023-08-14T06:50:10.097Z,98435.31
2023-08-14T06:52:36.482Z,98432.44
2023-08-14T06:55:02.829Z,98435.94
2023-08-14T06:57:29.236Z,98444.22
2023-08-14T06:59:55.648Z,98442.88
2023-08-14T07:02:22.008Z,98456.75
2023-08-14T07:04:48.395Z,98453.22
2023-08-14T07:07:14.811Z,98443.03
2023-08-14T07:09:41.416Z,98446.78
2023-08-14T07:12:07.850Z,98451.56
2023-08-14T07:14:34.218Z,98436.16
2023-08-14T07:17:00.893Z,98431.63
2023-08-14T07:19:27.252Z,98438.03
2023-08-14T07:21:53.606Z,98435.56
2023-08-14T07:24:19.957Z,98428.19
2023-08-14T07:26:46.315Z,98433.75
2023-08-14T07:29:12.693Z,98433.53
2023-08-14T07:31:39.046Z,98427.09
2023-08-14T07:34:05.862Z,98434.59
2023-08-14T07:36:32.218Z,98432.97
2023-08-14T07:38:58.611Z,98421.25
2023-08-14T07:41:25.046Z,98413.28
2023-08-14T07:43:51.413Z,98421.28
2023-08-14T07:46:19.149Z,98425.25
2023-08-14T07:48:45.700Z,98415.69
2023-08-14T07:51:12.068Z,98411.66
2023-08-14T07:53:38.488Z,98421.81
2023-08-14T07:56:04.911Z,98426.09
2023-08-14T07:58:31.300Z,98430.38
2023-08-14T08:00:57.649Z,98437.31
2023-08-14T08:03:24.004Z,98431.19
2023-08-14T08:05:50.382Z,98421.84
2023-08-14T08:08:16.762Z,98431.47
2023-08-14T08:10:43.116Z,98446.41
2023-08-14T08:13:09.502Z,98442.94
2023-08-14T08:15:35.897Z,98446.41
2023-08-14T08:18:02.333Z,98436.81
2023-08-14T08:20:29.125Z,98431.22
2023-08-14T08:22:55.638Z,98428.84
2023-08-14T08:25:22.032Z,98427.25
2023-08-14T08:27:48.421Z,98428.84
2023-08-14T08:30:14.775Z,98419.50
2023-08-14T08:32:41.338Z,98420.56
2023-08-14T08:35:07.995Z,98426.69
2023-08-14T08:37:34.348Z,98431.78
2023-08-14T08:40:00.702Z,98435.25
2023-08-14T08:42:27.207Z,98437.41
2023-08-14T08:44:54.023Z,98439.28
2023-08-14T08:47:21.875Z,98437.97
2023-08-14T08:49:48.412Z,98436.09
2023-08-14T08:52:14.768Z,98423.28
2023-08-14T08:54:41.134Z,98433.16
2023-08-14T08:57:07.651Z,98423.84
2023-08-14T08:59:34.210Z,98431.28
2023-08-14T09:02:00.656Z,98421.97
2023-08-14T09:04:27.195Z,98417.69
2023-08-14T09:06:53.840Z,98421.69
2023-08-14T09:09:20.226Z,98419.56
2023-08-14T09:11:46.620Z,98421.69
2023-08-14T09:14:13.717Z,98424.63
2023-08-14T09:16:41.325Z,98428.38
2023-08-14T09:19:07.688Z,98428.38
2023-08-14T09:21:34.053Z,98424.13
2023-08-14T09:24:00.494Z,98421.97
2023-08-14T09:26:26.965Z,98426.78
2023-08-14T09:28:53.368Z,98433.72
2023-08-14T09:31:19.747Z,98432.38
2023-08-14T09:33:46.173Z,98431.28
2023-08-14T09:36:12.995Z,98435.03
2023-08-14T09:38:39.438Z,98437.97
2023-08-14T09:41:05.912Z,98439.56
2023-08-14T09:43:32.549Z,98442.78
2023-08-14T09:45:59.888Z,98435.81
2023-08-14T09:48:42.325Z,98431.03
2023-08-14T09:51:12.693Z,98435.03
2023-08-14T09:53:43.438Z,98428.38
2023-08-14T09:56:10.351Z,98435.59
2023-08-14T09:58:36.740Z,98430.53
2023-08-14T10:01:03.166Z,98431.84
2023-08-14T10:03:29.694Z,98437.72
2023-08-14T10:05:56.092Z,98434.00
2023-08-14T10:08:22.549Z,98420.91
2023-08-14T10:11:05.478Z,98430.25
2023-08-14T10:13:36.740Z,98432.66
2023-08-14T10:16:03.877Z,98428.94
2023-08-14T10:18:30.647Z,98426.78
2023-08-14T10:20:57.028Z,98420.66
2023-08-14T10:23:23.424Z,98427.56
2023-08-14T10:25:51.664Z,98416.81
2023-08-14T10:28:20.344Z,98427.56
2023-08-14T10:30:46.861Z,98425.16
2023-08-14T10:33:13.732Z,98427.81
2023-08-14T10:35:50.119Z,98420.88
2023-08-14T10:38:18.301Z,98420.63
2023-08-14T10:40:55.776Z,98417.72
2023-08-14T10:43:24.516Z,98415.84
2023-08-14T10:45:52.053Z,98416.63
2023-08-14T10:48:20.505Z,98416.63
2023-08-14T10:50:50.150Z,98415.56
2023-08-14T10:53:16.746Z,98417.69
2023-08-14T10:55:45.248Z,98418.78
2023-08-14T10:58:30.210Z,98434.22
2023-08-14T11:00:56.768Z,98435.25
2023-08-14T11:03:23.483Z,98427.25
2023-08-14T11:05:50.662Z,98424.41
2023-08-14T11:08:17.477Z,98418.78
2023-08-14T11:10:44.085Z,98416.09
2023-08-14T11:13:10.575Z,98423.31
2023-08-14T11:15:37.340Z,98417.44
2023-08-14T11:18:06.501Z,98412.91
2023-08-14T11:20:33.126Z,98414.72
2023-08-14T11:23:02.373Z,98416.09
2023-08-14T11:25:29.081Z,98410.75
2023-08-14T11:27:55.726Z,98409.16
2023-08-14T11:32:53.278Z,98400.91
2023-08-14T11:35:19.731Z,98402.50
2023-08-14T11:37:47.905Z,98398.22
2023-08-14T11:40:16.710Z,98411.81
2023-08-14T11:42:43.837Z,98408.88
2023-08-14T11:45:10.669Z,98406.22
2023-08-14T11:47:37.755Z,98394.47
2023-08-14T11:50:04.789Z,98397.94
2023-08-14T11:52:31.161Z,98384.56
2023-08-14T11:54:57.524Z,98387.53
2023-08-14T11:57:24.464Z,98391.00
2023-08-14T11:59:50.858Z,98389.38
2023-08-14T12:02:18.380Z,98381.91
2023-08-14T12:04:45.037Z,98378.72
2023-08-14T12:07:11.439Z,98385.66
2023-08-14T12:09:39.476Z,98381.38
2023-08-14T12:12:05.972Z,98380.59
2023-08-14T12:14:39.102Z,98384.59
2023-08-14T12:17:16.392Z,98368.56
2023-08-14T12:19:48.340Z,98364.25
2023-08-14T12:22:14.696Z,98373.88
2023-08-14T12:24:41.486Z,98370.38
2023-08-14T12:27:14.660Z,98368.25
2023-08-14T12:29:41.047Z,98370.16
2023-08-14T12:32:07.466Z,98368.28
2023-08-14T12:34:33.864Z,98368.78
2023-08-14T12:37:00.494Z,98373.09
2023-08-14T12:39:26.867Z,98367.19
2023-08-14T12:41:55.726Z,98373.63
2023-08-14T12:44:22.121Z,98374.44
2023-08-14T12:46:48.568Z,98379.16
2023-08-14T12:49:14.953Z,98380.00
2023-08-14T12:51:42.641Z,98381.66
2023-08-14T12:54:10.533Z,98377.31
2023-08-14T12:56:37.959Z,98372.25
2023-08-14T12:59:04.512Z,98374.91
2023-08-14T13:01:30.922Z,98370.41
2023-08-14T13:03:59.127Z,98367.72
2023-08-14T13:06:29.612Z,98362.66
2023-08-14T13:08:55.989Z,98376.44
2023-08-14T13:11:22.387Z,98368.19
2023-08-14T13:13:49.516Z,98372.81
2023-08-14T13:16:16.278Z,98374.44
2023-08-14T13:18:42.704Z,98367.69
2023-08-14T13:21:09.066Z,98383.16
2023-08-14T13:23:35.434Z,98383.72
2023-08-14T13:26:01.828Z,98374.31
2023-08-14T13:28:28.352Z,98382.66
2023-08-14T13:30:54.750Z,98366.59
2023-08-14T13:33:21.159Z,98373.31
2023-08-14T13:35:47.553Z,98369.31
2023-08-14T13:38:13.969Z,98362.66
2023-08-14T13:40:40.365Z,98366.91
2023-08-14T13:43:06.730Z,98358.88
2023-08-14T13:45:33.107Z,98361.06
2023-08-14T13:47:59.827Z,98358.84
2023-08-14T13:50:32.714Z,98359.47
2023-08-14T13:53:00.214Z,98365.06
2023-08-14T13:55:27.742Z,98365.63
2023-08-14T13:57:56.730Z,98370.13
2023-08-14T14:00:28.075Z,98361.88
2023-08-14T14:02:56.241Z,98365.38
2023-08-14T14:05:22.758Z,98350.41
2023-08-14T14:10:17.472Z,98341.34
2023-08-14T14:12:59.722Z,98310.59
2023-08-14T14:15:28.532Z,98299.91
2023-08-14T14:17:55.016Z,98273.97
2023-08-14T14:20:21.392Z,98269.75
2023-08-14T14:22:47.749Z,98261.47
2023-08-14T14:25:14.329Z,98246.81
2023-08-14T14:27:40.781Z,98256.91
2023-08-14T14:30:07.421Z,98255.63
2023-08-14T14:32:33.837Z,98272.72
2023-08-14T14:35:00.288Z,98267.09
2023-08-14T14:37:26.708Z,98274.31
2023-08-14T14:39:53.122Z,98285.50
2023-08-14T14:42:22.865Z,98295.66
2023-08-14T14:44:50.581Z,98293.25
2023-08-14T14:47:17.245Z,98292.19
2023-08-14T14:49:43.784Z,98291.66
2023-08-14T14:52:10.165Z,98289.22
2023-08-14T14:54:36.540Z,98283.84
2023-08-14T14:57:02.937Z,98278.25
2023-08-14T14:59:29.315Z,98298.03
2023-08-14T15:01:55.690Z,98308.19
2023-08-14T15:04:22.052Z,98294.50
2023-08-14T15:06:48.703Z,98287.34
2023-08-14T15:09:15.073Z,98284.94
2023-08-14T15:11:41.453Z,98275.84
2023-08-14T15:14:07.936Z,98282.78
2023-08-14T15:16:34.418Z,98286.50
2023-08-14T15:19:00.795Z,98285.16
2023-08-14T15:21:27.150Z,98294.53
2023-08-14T15:23:53.631Z,98297.75
2023-08-14T15:26:20.378Z,98299.59
2023-08-14T15:28:47.100Z,98301.22
2023-08-14T15:31:13.489Z,98296.41
2023-08-14T15:33:39.873Z,98289.44
2023-08-14T15:36:06.317Z,98289.16
2023-08-14T15:38:32.738Z,98290.28
2023-08-14T15:40:59.096Z,98284.66
2023-08-14T15:43:25.583Z,98286.31
2023-08-14T15:46:01.730Z,98286.53
2023-08-14T15:48:28.399Z,98285.22
2023-08-14T15:50:54.776Z,98280.94
2023-08-14T15:53:21.129Z,98282.53
2023-08-14T15:55:47.528Z,98288.97
2023-08-14T15:58:14.247Z,98285.47
2023-08-14T16:00:40.599Z,98285.22
2023-08-14T16:03:07.774Z,98287.09
2023-08-14T16:05:34.311Z,98275.56
2023-08-14T16:08:00.690Z,98279.31
2023-08-14T16:10:27.078Z,98273.72
2023-08-14T16:12:53.455Z,98275.81
2023-08-14T16:15:19.830Z,98280.09
2023-08-14T16:17:46.288Z,98293.69
2023-08-14T16:20:13.377Z,98298.75
2023-08-14T16:22:40.234Z,98296.09
2023-08-14T16:25:07.061Z,98290.53
2023-08-14T16:27:33.411Z,98291.59
2023-08-14T16:29:59.887Z,98292.66
2023-08-14T16:32:26.325Z,98295.53
2023-08-14T16:34:52.695Z,98302.13
2023-08-14T16:37:19.525Z,98293.69
2023-08-14T16:39:46.117Z,98300.13
2023-08-14T16:42:12.561Z,98302.28
2023-08-14T16:44:38.925Z,98299.03
2023-08-14T16:47:05.326Z,98293.47
2023-08-14T16:49:32.302Z,98299.88
2023-08-14T16:51:58.663Z,98303.63
2023-08-14T16:54:25.045Z,98307.13
2023-08-14T16:56:51.426Z,98314.03
2023-08-14T16:59:17.950Z,98313.53
2023-08-14T17:01:44.344Z,98307.69
2023-08-14T17:04:10.828Z,98307.94
2023-08-14T17:06:37.229Z,98310.59
2023-08-14T17:09:05.269Z,98306.06
2023-08-14T17:11:31.635Z,98308.22
2023-08-14T17:13:58.062Z,98305.00
2023-08-14T17:16:24.665Z,98308.75
2023-08-14T17:18:51.118Z,98311.41
2023-08-14T17:21:17.468Z,98307.16
2023-08-14T17:23:43.849Z,98306.34
2023-08-14T17:26:10.205Z,98306.06
2023-08-14T17:28:36.566Z,98307.13
2023-08-14T17:31:02.976Z,98299.91
2023-08-14T17:33:29.384Z,98303.16
2023-08-14T17:35:55.829Z,98295.38
2023-08-14T17:38:22.209Z,98299.66
2023-08-14T17:40:49.087Z,98288.19
2023-08-14T17:43:15.469Z,98297.78
2023-08-14T17:45:42.071Z,98292.44
2023-08-14T17:48:08.495Z,98295.66
2023-08-14T17:50:34.881Z,98294.06
2023-08-14T17:53:01.255Z,98301.53
2023-08-14T17:55:27.599Z,98288.44
2023-08-14T17:57:53.971Z,98291.38
2023-08-14T18:00:20.336Z,98290.84
2023-08-14T18:02:46.814Z,98305.81
2023-08-14T18:05:13.229Z,98288.97
2023-08-14T18:07:39.642Z,98288.44
2023-08-14T18:10:06.240Z,98296.47
2023-08-14T18:12:32.619Z,98289.75
2023-08-14T18:14:58.961Z,98277.78
2023-08-14T18:17:25.367Z,98278.56
2023-08-14T18:19:51.947Z,98278.06
2023-08-14T18:22:18.993Z,98268.41
2023-08-14T18:24:45.415Z,98290.84
2023-08-14T18:27:11.913Z,98279.66
2023-08-14T18:29:38.275Z,98279.66
2023-08-14T18:32:18.520Z,98277.78
2023-08-14T18:34:45.542Z,98276.22
2023-08-14T18:37:12.024Z,98283.97
2023-08-14T18:39:38.470Z,98285.84
2023-08-14T18:42:06.449Z,98288.25
2023-08-14T18:44:32.832Z,98288.25
2023-08-14T18:46:59.381Z,98290.38
2023-08-14T18:49:25.840Z,98287.47
2023-08-14T18:51:52.205Z,98272.25
2023-08-14T18:54:19.377Z,98274.91
2023-08-14T18:56:45.812Z,98268.81
2023-08-14T18:59:12.916Z,98267.19
2023-08-14T19:01:39.345Z,98269.06
2023-08-14T19:04:05.822Z,98273.09
2023-08-14T19:06:32.506Z,98272.78
2023-08-14T19:08:58.923Z,98273.06
2023-08-14T19:11:25.349Z,98276.53
2023-08-14T19:13:51.718Z,98284.03
2023-08-14T19:16:18.106Z,98278.66
2023-08-14T19:18:44.626Z,98284.81
2023-08-14T19:21:11.003Z,98289.09
2023-08-14T19:23:37.434Z,98283.50
2023-08-14T19:26:15.021Z,98288.56
2023-08-14T19:28:49.061Z,98287.47
2023-08-14T19:31:15.505Z,98290.69
2023-08-14T19:33:42.815Z,98293.88
2023-08-14T19:36:09.285Z,98289.34
2023-08-14T19:38:35.724Z,98299.22
2023-08-14T19:41:02.183Z,98299.22
2023-08-14T19:43:28.563Z,98300.59
2023-08-14T19:45:54.984Z,98297.09
2023-08-14T19:48:21.427Z,98305.09
2023-08-14T19:50:47.863Z,98299.25
2023-08-14T19:53:14.392Z,98294.69
2023-08-14T19:55:40.967Z,98300.31
2023-08-14T19:58:07.350Z,98305.09
2023-08-14T20:00:33.732Z,98303.50
2023-08-14T20:03:00.201Z,98298.44
2023-08-14T20:05:26.779Z,98298.97
2023-08-14T20:07:53.186Z,98303.50
2023-08-14T20:10:19.540Z,98305.38
2023-08-14T20:12:45.971Z,98294.72
2023-08-14T20:15:12.352Z,98299.53
2023-08-14T20:17:38.814Z,98305.66
2023-08-14T20:20:05.832Z,98297.66
2023-08-14T20:22:32.187Z,98294.44
2023-08-14T20:25:00.949Z,98296.31
2023-08-14T20:27:27.318Z,98293.09
2023-08-14T20:29:53.995Z,98290.69
2023-08-14T20:32:20.447Z,98302.97
2023-08-14T20:34:46.822Z,98294.69
2023-08-14T20:37:13.174Z,98294.13
2023-08-14T20:39:39.706Z,98295.22
2023-08-14T20:42:06.195Z,98296.28
2023-08-14T20:44:32.606Z,98298.94
2023-08-14T20:46:58.960Z,98299.22
2023-08-14T20:49:29.465Z,98296.28
2023-08-14T20:51:55.834Z,98296.28
2023-08-14T20:54:22.551Z,98301.91
2023-08-14T20:56:48.901Z,98301.91
2023-08-14T20:59:15.265Z,98302.19
2023-08-14T21:01:41.702Z,98305.66
2023-08-14T21:04:08.183Z,98304.84
2023-08-14T21:06:34.560Z,98318.72
2023-08-14T21:09:01.040Z,98319.50
2023-08-14T21:11:27.403Z,98317.63
2023-08-14T21:13:53.792Z,98327.53
2023-08-14T21:16:20.200Z,98324.84
2023-08-14T21:18:46.888Z,98334.72
2023-08-14T21:21:13.284Z,98332.06
2023-08-14T21:23:39.684Z,98336.31
2023-08-14T21:26:06.119Z,98333.94
2023-08-14T21:28:32.488Z,98340.84
2023-08-14T21:30:59.660Z,98345.41
2023-08-14T21:33:26.459Z,98345.66
2023-08-14T21:35:52.921Z,98344.88
2023-08-14T21:38:19.291Z,98344.88
2023-08-14T21:40:45.656Z,98341.66
2023-08-14T21:43:12.016Z,98358.72
2023-08-14T21:45:40.990Z,98354.19
2023-08-14T21:48:07.703Z,98358.72
2023-08-14T21:50:40.181Z,98353.41
2023-08-14T21:53:06.537Z,98341.13
2023-08-14T21:55:33.007Z,98332.34
2023-08-14T21:57:59.380Z,98332.34
2023-08-14T22:00:25.743Z,98330.97
2023-08-14T22:02:52.425Z,98340.34
2023-08-14T22:05:18.828Z,98335.00
2023-08-14T22:07:45.181Z,98339.78
2023-08-14T22:10:12.720Z,98340.84
2023-08-14T22:12:39.250Z,98345.66
2023-08-14T22:15:06.188Z,98346.72
2023-08-14T22:17:32.624Z,98343.25
2023-08-14T22:19:59.020Z,98342.44
2023-08-14T22:22:25.444Z,98348.88
2023-08-14T22:24:51.827Z,98351.53
2023-08-14T22:27:18.399Z,98360.06
2023-08-14T22:29:45.164Z,98349.66
2023-08-14T22:32:11.534Z,98351.53
2023-08-14T22:34:38.218Z,98359.25
2023-08-14T22:37:04.601Z,98351.25
2023-08-14T22:39:31.927Z,98355.00
2023-08-14T22:41:58.637Z,98358.97
2023-08-14T22:44:25.031Z,98353.88
2023-08-14T22:46:51.396Z,98348.56
2023-08-14T22:49:17.759Z,98353.09
2023-08-14T22:51:44.377Z,98347.75
2023-08-14T22:54:10.723Z,98340.81
2023-08-14T22:56:37.780Z,98348.28
2023-08-14T22:59:04.132Z,98345.38
2023-08-14T23:01:30.590Z,98335.50
2023-08-14T23:03:57.092Z,98339.75
2023-08-14T23:06:23.493Z,98325.34
2023-08-14T23:08:49.865Z,98328.00
2023-08-14T23:11:16.385Z,98335.78
2023-08-14T23:13:42.728Z,98336.56
2023-08-14T23:16:09.530Z,98332.31
2023-08-14T23:18:35.946Z,98336.56
2023-08-14T23:21:02.308Z,98332.31
2023-08-14T23:23:28.700Z,98321.63
2023-08-14T23:25:55.078Z,98331.75
2023-08-14T23:28:21.470Z,98330.69
2023-08-14T23:30:49.908Z,98323.47
2023-08-14T23:33:16.319Z,98326.16
2023-08-14T23:35:42.689Z,98322.94
2023-08-14T23:38:09.051Z,98318.41
2023-08-14T23:40:35.407Z,98325.34
2023-08-14T23:43:01.800Z,98324.03
2023-08-14T23:45:28.158Z,98326.41
2023-08-14T23:47:54.577Z,98322.16
2023-08-14T23:50:20.961Z,98321.38
2023-08-14T23:52:47.537Z,98318.69
2023-08-14T23:55:14.012Z,98315.22
2023-08-14T23:57:40.368Z,98304.81
